sensor_id;sensor_type;location;lat;lon;timestamp;temperature;humidity
18083;DHT22;9168;51.194;6.840;2022-12-22T01:07:11;8.90;99.90
18083;DHT22;9168;51.194;6.840;2022-12-22T01:10:07;9.00;99.90
18083;DHT22;9168;51.194;6.840;2022-12-22T01:14:09;9.00;99.90
18083;DHT22;9168;51.194;6.840;2022-12-22T01:17:57;9.10;99.90
18083;DHT22;9168;51.194;6.840;2022-12-22T01:48:58;9.20;99.90
18083;DHT22;9168;51.194;6.840;2022-12-22T02:02:47;9.10;99.90
18083;DHT22;9168;51.194;6.840;2022-12-22T02:18:46;9.20;99.90
18083;DHT22;9168;51.194;6.840;2022-12-22T02:25:56;9.20;99.90
18083;DHT22;9168;51.194;6.840;2022-12-22T02:28:30;9.20;99.90
18083;DHT22;9168;51.194;6.840;2022-12-22T02:45:57;9.30;99.90
18083;DHT22;9168;51.194;6.840;2022-12-22T02:49:31;9.30;99.90
18083;DHT22;9168;51.194;6.840;2022-12-22T02:53:15;9.30;99.90
18083;DHT22;9168;51.194;6.840;2022-12-22T02:55:57;9.30;99.90
18083;DHT22;9168;51.194;6.840;2022-12-22T03:02:40;9.30;99.90
18083;DHT22;9168;51.194;6.840;2022-12-22T03:09:18;9.30;99.90
18083;DHT22;9168;51.194;6.840;2022-12-22T03:12:22;9.40;99.90
18083;DHT22;9168;51.194;6.840;2022-12-22T03:15:17;9.40;99.90
18083;DHT22;9168;51.194;6.840;2022-12-22T03:18:13;9.40;99.90
18083;DHT22;9168;51.194;6.840;2022-12-22T03:21:12;9.50;99.90
18083;DHT22;9168;51.194;6.840;2022-12-22T03:23:57;9.40;99.90
18083;DHT22;9168;51.194;6.840;2022-12-22T03:26:42;9.50;99.90
18083;DHT22;9168;51.194;6.840;2022-12-22T03:29:09;9.40;99.90
18083;DHT22;9168;51.194;6.840;2022-12-22T03:31:36;9.40;99.90
18083;DHT22;9168;51.194;6.840;2022-12-22T03:34:04;9.40;99.90
18083;DHT22;9168;51.194;6.840;2022-12-22T03:36:31;9.40;99.90
18083;DHT22;9168;51.194;6.840;2022-12-22T03:38:58;9.40;99.90
18083;DHT22;9168;51.194;6.840;2022-12-22T03:41:25;9.40;99.90
18083;DHT22;9168;51.194;6.840;2022-12-22T03:44:08;9.50;99.90
18083;DHT22;9168;51.194;6.840;2022-12-22T03:46:53;9.40;99.90
18083;DHT22;9168;51.194;6.840;2022-12-22T03:49:21;9.40;99.90
18083;DHT22;9168;51.194;6.840;2022-12-22T03:51:51;9.40;99.90
18083;DHT22;9168;51.194;6.840;2022-12-22T03:54:20;9.40;99.90
18083;DHT22;9168;51.194;6.840;2022-12-22T03:56:48;9.40;99.90
18083;DHT22;9168;51.194;6.840;2022-12-22T03:59:15;9.50;99.90
18083;DHT22;9168;51.194;6.840;2022-12-22T04:01:44;9.40;99.90
18083;DHT22;9168;51.194;6.840;2022-12-22T04:04:13;9.40;99.90
18083;DHT22;9168;51.194;6.840;2022-12-22T04:06:42;9.50;99.90
18083;DHT22;9168;51.194;6.840;2022-12-22T04:09:09;9.50;99.90
18083;DHT22;9168;51.194;6.840;2022-12-22T04:11:36;9.40;99.90
18083;DHT22;9168;51.194;6.840;2022-12-22T04:14:21;9.40;99.90
18083;DHT22;9168;51.194;6.840;2022-12-22T04:16:48;9.50;99.90
18083;DHT22;9168;51.194;6.840;2022-12-22T04:19:15;9.50;99.90
18083;DHT22;9168;51.194;6.840;2022-12-22T04:21:44;9.50;99.90
18083;DHT22;9168;51.194;6.840;2022-12-22T04:24:11;9.50;99.90
18083;DHT22;9168;51.194;6.840;2022-12-22T04:26:38;9.50;99.90
18083;DHT22;9168;51.194;6.840;2022-12-22T04:29:05;9.50;99.90
18083;DHT22;9168;51.194;6.840;2022-12-22T04:31:32;9.40;99.90
18083;DHT22;9168;51.194;6.840;2022-12-22T04:33:59;9.40;99.90
18083;DHT22;9168;51.194;6.840;2022-12-22T04:36:26;9.40;99.90
18083;DHT22;9168;51.194;6.840;2022-12-22T04:38:54;9.40;99.90
18083;DHT22;9168;51.194;6.840;2022-12-22T04:41:21;9.50;99.90
18083;DHT22;9168;51.194;6.840;2022-12-22T04:43:48;9.40;99.90
18083;DHT22;9168;51.194;6.840;2022-12-22T04:46:15;9.40;99.90
18083;DHT22;9168;51.194;6.840;2022-12-22T04:48:42;9.40;99.90
18083;DHT22;9168;51.194;6.840;2022-12-22T04:51:08;9.50;99.90
18083;DHT22;9168;51.194;6.840;2022-12-22T04:53:35;9.50;99.90
18083;DHT22;9168;51.194;6.840;2022-12-22T04:56:06;9.50;99.90
18083;DHT22;9168;51.194;6.840;2022-12-22T04:58:35;9.50;99.90
18083;DHT22;9168;51.194;6.840;2022-12-22T05:01:09;9.50;99.90
18083;DHT22;9168;51.194;6.840;2022-12-22T05:03:36;9.50;99.90
18083;DHT22;9168;51.194;6.840;2022-12-22T05:06:04;9.50;99.90
18083;DHT22;9168;51.194;6.840;2022-12-22T05:08:30;9.50;99.90
18083;DHT22;9168;51.194;6.840;2022-12-22T05:10:57;9.50;99.90
18083;DHT22;9168;51.194;6.840;2022-12-22T05:13:26;9.50;99.90
18083;DHT22;9168;51.194;6.840;2022-12-22T05:15:52;9.40;99.90
18083;DHT22;9168;51.194;6.840;2022-12-22T05:18:19;9.40;99.90
18083;DHT22;9168;51.194;6.840;2022-12-22T05:20:49;9.50;99.90
18083;DHT22;9168;51.194;6.840;2022-12-22T05:23:16;9.50;99.90
18083;DHT22;9168;51.194;6.840;2022-12-22T05:25:43;9.40;99.90
18083;DHT22;9168;51.194;6.840;2022-12-22T05:28:09;9.40;99.90
18083;DHT22;9168;51.194;6.840;2022-12-22T05:30:39;9.40;99.90
18083;DHT22;9168;51.194;6.840;2022-12-22T05:33:06;9.40;99.90
18083;DHT22;9168;51.194;6.840;2022-12-22T05:35:33;9.30;99.90
18083;DHT22;9168;51.194;6.840;2022-12-22T05:38:00;9.30;99.90
18083;DHT22;9168;51.194;6.840;2022-12-22T05:40:27;9.30;99.90
18083;DHT22;9168;51.194;6.840;2022-12-22T05:42:53;9.40;99.90
18083;DHT22;9168;51.194;6.840;2022-12-22T05:45:21;9.30;99.90
18083;DHT22;9168;51.194;6.840;2022-12-22T05:47:50;9.30;99.90
18083;DHT22;9168;51.194;6.840;2022-12-22T05:50:20;9.30;99.90
18083;DHT22;9168;51.194;6.840;2022-12-22T05:52:47;9.30;99.90
18083;DHT22;9168;51.194;6.840;2022-12-22T05:55:14;9.40;99.90
18083;DHT22;9168;51.194;6.840;2022-12-22T05:57:42;9.40;99.90
18083;DHT22;9168;51.194;6.840;2022-12-22T06:00:12;9.50;99.90
18083;DHT22;9168;51.194;6.840;2022-12-22T06:02:40;9.50;99.90
18083;DHT22;9168;51.194;6.840;2022-12-22T06:05:10;9.50;99.90
18083;DHT22;9168;51.194;6.840;2022-12-22T06:07:38;9.50;99.90
18083;DHT22;9168;51.194;6.840;2022-12-22T06:10:06;9.50;99.90
18083;DHT22;9168;51.194;6.840;2022-12-22T06:12:33;9.50;99.90
18083;DHT22;9168;51.194;6.840;2022-12-22T06:15:00;9.50;99.90
18083;DHT22;9168;51.194;6.840;2022-12-22T06:17:27;9.50;99.90
18083;DHT22;9168;51.194;6.840;2022-12-22T06:19:54;9.50;99.90
18083;DHT22;9168;51.194;6.840;2022-12-22T06:22:22;9.40;99.90
18083;DHT22;9168;51.194;6.840;2022-12-22T06:24:49;9.50;99.90
18083;DHT22;9168;51.194;6.840;2022-12-22T06:27:16;9.50;99.90
18083;DHT22;9168;51.194;6.840;2022-12-22T06:29:42;9.50;99.90
18083;DHT22;9168;51.194;6.840;2022-12-22T06:32:09;9.50;99.90
18083;DHT22;9168;51.194;6.840;2022-12-22T06:34:36;9.50;99.90
18083;DHT22;9168;51.194;6.840;2022-12-22T06:37:03;9.50;99.90
18083;DHT22;9168;51.194;6.840;2022-12-22T06:39:31;9.40;99.90
18083;DHT22;9168;51.194;6.840;2022-12-22T06:41:58;9.40;99.90
18083;DHT22;9168;51.194;6.840;2022-12-22T06:44:43;9.30;99.90
18083;DHT22;9168;51.194;6.840;2022-12-22T06:47:09;9.30;99.90
18083;DHT22;9168;51.194;6.840;2022-12-22T06:49:36;9.30;99.90
18083;DHT22;9168;51.194;6.840;2022-12-22T06:52:06;9.30;99.90
18083;DHT22;9168;51.194;6.840;2022-12-22T06:54:34;9.30;99.90
18083;DHT22;9168;51.194;6.840;2022-12-22T06:57:01;9.20;99.90
18083;DHT22;9168;51.194;6.840;2022-12-22T06:59:28;9.20;99.90
18083;DHT22;9168;51.194;6.840;2022-12-22T07:01:55;9.20;99.90
18083;DHT22;9168;51.194;6.840;2022-12-22T07:04:22;9.20;99.90
18083;DHT22;9168;51.194;6.840;2022-12-22T07:06:48;9.10;99.90
18083;DHT22;9168;51.194;6.840;2022-12-22T07:09:15;9.20;99.90
18083;DHT22;9168;51.194;6.840;2022-12-22T07:11:44;9.20;99.90
18083;DHT22;9168;51.194;6.840;2022-12-22T07:14:10;9.20;99.90
18083;DHT22;9168;51.194;6.840;2022-12-22T07:16:37;9.20;99.90
18083;DHT22;9168;51.194;6.840;2022-12-22T07:19:04;9.20;99.90
18083;DHT22;9168;51.194;6.840;2022-12-22T07:21:31;9.10;99.90
18083;DHT22;9168;51.194;6.840;2022-12-22T07:23:58;9.10;99.90
18083;DHT22;9168;51.194;6.840;2022-12-22T07:26:25;9.10;99.90
18083;DHT22;9168;51.194;6.840;2022-12-22T07:28:53;9.10;99.90
18083;DHT22;9168;51.194;6.840;2022-12-22T07:31:20;9.10;99.90
18083;DHT22;9168;51.194;6.840;2022-12-22T07:33:47;9.10;99.90
18083;DHT22;9168;51.194;6.840;2022-12-22T07:36:15;9.10;99.90
18083;DHT22;9168;51.194;6.840;2022-12-22T07:38:44;9.10;99.90
18083;DHT22;9168;51.194;6.840;2022-12-22T07:41:13;9.10;99.90
18083;DHT22;9168;51.194;6.840;2022-12-22T07:43:59;9.10;99.90
18083;DHT22;9168;51.194;6.840;2022-12-22T07:46:28;9.10;99.90
18083;DHT22;9168;51.194;6.840;2022-12-22T07:48:55;9.20;99.90
18083;DHT22;9168;51.194;6.840;2022-12-22T07:51:41;9.20;99.90
18083;DHT22;9168;51.194;6.840;2022-12-22T07:54:09;9.20;99.90
18083;DHT22;9168;51.194;6.840;2022-12-22T07:56:36;9.20;99.90
18083;DHT22;9168;51.194;6.840;2022-12-22T07:59:06;9.30;99.90
18083;DHT22;9168;51.194;6.840;2022-12-22T08:01:33;9.30;99.90
18083;DHT22;9168;51.194;6.840;2022-12-22T08:04:00;9.30;99.90
18083;DHT22;9168;51.194;6.840;2022-12-22T08:06:27;9.40;99.90
18083;DHT22;9168;51.194;6.840;2022-12-22T08:08:54;9.40;99.90
18083;DHT22;9168;51.194;6.840;2022-12-22T08:11:21;9.40;99.90
18083;DHT22;9168;51.194;6.840;2022-12-22T08:13:49;9.50;99.90
18083;DHT22;9168;51.194;6.840;2022-12-22T08:16:19;9.50;99.90
18083;DHT22;9168;51.194;6.840;2022-12-22T08:18:47;9.60;99.90
18083;DHT22;9168;51.194;6.840;2022-12-22T08:21:14;9.60;99.90
18083;DHT22;9168;51.194;6.840;2022-12-22T08:23:41;9.60;99.90
18083;DHT22;9168;51.194;6.840;2022-12-22T08:26:11;9.70;99.90
18083;DHT22;9168;51.194;6.840;2022-12-22T08:28:42;9.70;99.90
18083;DHT22;9168;51.194;6.840;2022-12-22T08:31:10;9.60;99.90
18083;DHT22;9168;51.194;6.840;2022-12-22T08:33:38;9.60;99.90
18083;DHT22;9168;51.194;6.840;2022-12-22T08:36:06;9.60;99.90
18083;DHT22;9168;51.194;6.840;2022-12-22T08:38:35;9.60;99.90
18083;DHT22;9168;51.194;6.840;2022-12-22T08:41:05;9.60;99.90
18083;DHT22;9168;51.194;6.840;2022-12-22T08:43:33;9.60;99.90
18083;DHT22;9168;51.194;6.840;2022-12-22T08:46:00;9.60;99.90
18083;DHT22;9168;51.194;6.840;2022-12-22T08:48:27;9.60;99.90
18083;DHT22;9168;51.194;6.840;2022-12-22T08:50:55;9.60;99.90
18083;DHT22;9168;51.194;6.840;2022-12-22T08:53:22;9.60;99.90
18083;DHT22;9168;51.194;6.840;2022-12-22T08:55:51;9.60;99.90
18083;DHT22;9168;51.194;6.840;2022-12-22T08:58:19;9.60;99.90
18083;DHT22;9168;51.194;6.840;2022-12-22T09:00:47;9.60;99.90
18083;DHT22;9168;51.194;6.840;2022-12-22T09:03:14;9.60;99.90
18083;DHT22;9168;51.194;6.840;2022-12-22T09:05:41;9.60;99.90
18083;DHT22;9168;51.194;6.840;2022-12-22T09:08:09;9.60;99.90
18083;DHT22;9168;51.194;6.840;2022-12-22T09:10:36;9.60;99.90
18083;DHT22;9168;51.194;6.840;2022-12-22T09:13:03;9.60;99.90
18083;DHT22;9168;51.194;6.840;2022-12-22T09:15:29;9.60;99.90
18083;DHT22;9168;51.194;6.840;2022-12-22T09:17:56;9.60;99.90
18083;DHT22;9168;51.194;6.840;2022-12-22T09:20:23;9.60;99.90
18083;DHT22;9168;51.194;6.840;2022-12-22T09:22:50;9.70;99.90
18083;DHT22;9168;51.194;6.840;2022-12-22T09:25:18;9.70;99.90
18083;DHT22;9168;51.194;6.840;2022-12-22T09:27:45;9.70;99.90
18083;DHT22;9168;51.194;6.840;2022-12-22T09:30:13;9.60;99.90
18083;DHT22;9168;51.194;6.840;2022-12-22T09:32:40;9.60;99.90
18083;DHT22;9168;51.194;6.840;2022-12-22T09:35:07;9.60;99.90
18083;DHT22;9168;51.194;6.840;2022-12-22T09:37:34;9.60;99.90
18083;DHT22;9168;51.194;6.840;2022-12-22T09:40:01;9.60;99.90
18083;DHT22;9168;51.194;6.840;2022-12-22T09:42:31;9.60;99.90
18083;DHT22;9168;51.194;6.840;2022-12-22T09:44:59;9.60;99.90
18083;DHT22;9168;51.194;6.840;2022-12-22T09:47:31;9.60;99.90
18083;DHT22;9168;51.194;6.840;2022-12-22T09:50:02;9.60;99.90
18083;DHT22;9168;51.194;6.840;2022-12-22T09:52:41;9.60;99.90
18083;DHT22;9168;51.194;6.840;2022-12-22T09:55:14;9.70;99.90
18083;DHT22;9168;51.194;6.840;2022-12-22T09:57:46;9.70;99.90
18083;DHT22;9168;51.194;6.840;2022-12-22T10:00:15;9.70;99.90
18083;DHT22;9168;51.194;6.840;2022-12-22T10:02:49;9.70;99.90
18083;DHT22;9168;51.194;6.840;2022-12-22T10:05:23;9.70;99.90
18083;DHT22;9168;51.194;6.840;2022-12-22T10:07:58;9.70;99.90
18083;DHT22;9168;51.194;6.840;2022-12-22T10:10:28;9.70;99.90
18083;DHT22;9168;51.194;6.840;2022-12-22T10:12:58;9.70;99.90
18083;DHT22;9168;51.194;6.840;2022-12-22T10:15:27;9.70;99.90
18083;DHT22;9168;51.194;6.840;2022-12-22T10:18:09;9.70;99.90
18083;DHT22;9168;51.194;6.840;2022-12-22T10:20:37;9.70;99.90
18083;DHT22;9168;51.194;6.840;2022-12-22T10:23:14;9.70;99.90
18083;DHT22;9168;51.194;6.840;2022-12-22T10:25:57;9.70;99.90
18083;DHT22;9168;51.194;6.840;2022-12-22T10:28:31;9.70;99.90
18083;DHT22;9168;51.194;6.840;2022-12-22T10:31:15;9.70;99.90
18083;DHT22;9168;51.194;6.840;2022-12-22T10:33:44;9.70;99.90
18083;DHT22;9168;51.194;6.840;2022-12-22T10:36:12;9.70;99.90
18083;DHT22;9168;51.194;6.840;2022-12-22T10:38:52;9.70;99.90
18083;DHT22;9168;51.194;6.840;2022-12-22T10:41:21;9.70;99.90
18083;DHT22;9168;51.194;6.840;2022-12-22T10:43:51;9.70;99.90
18083;DHT22;9168;51.194;6.840;2022-12-22T10:46:27;9.70;99.90
18083;DHT22;9168;51.194;6.840;2022-12-22T10:49:12;9.70;99.90
18083;DHT22;9168;51.194;6.840;2022-12-22T10:51:41;9.60;99.90
18083;DHT22;9168;51.194;6.840;2022-12-22T10:54:26;9.60;99.90
18083;DHT22;9168;51.194;6.840;2022-12-22T10:57:05;9.60;99.90
18083;DHT22;9168;51.194;6.840;2022-12-22T10:59:46;9.70;99.90
18083;DHT22;9168;51.194;6.840;2022-12-22T11:02:27;9.80;99.90
18083;DHT22;9168;51.194;6.840;2022-12-22T11:05:00;9.90;99.90
18083;DHT22;9168;51.194;6.840;2022-12-22T11:07:29;10.10;99.90
18083;DHT22;9168;51.194;6.840;2022-12-22T11:09:57;10.20;99.90
18083;DHT22;9168;51.194;6.840;2022-12-22T11:12:37;10.20;99.90
18083;DHT22;9168;51.194;6.840;2022-12-22T11:15:13;10.30;99.90
18083;DHT22;9168;51.194;6.840;2022-12-22T11:17:53;10.30;99.90
18083;DHT22;9168;51.194;6.840;2022-12-22T11:20:34;10.30;99.90
18083;DHT22;9168;51.194;6.840;2022-12-22T11:23:06;10.40;99.90
18083;DHT22;9168;51.194;6.840;2022-12-22T11:25:43;10.60;99.90
18083;DHT22;9168;51.194;6.840;2022-12-22T11:28:25;10.60;99.90
18083;DHT22;9168;51.194;6.840;2022-12-22T11:31:03;10.60;99.90
18083;DHT22;9168;51.194;6.840;2022-12-22T11:33:43;10.70;99.90
18083;DHT22;9168;51.194;6.840;2022-12-22T11:36:18;10.70;99.90
18083;DHT22;9168;51.194;6.840;2022-12-22T11:38:53;10.70;99.90
18083;DHT22;9168;51.194;6.840;2022-12-22T11:41:34;10.70;99.90
18083;DHT22;9168;51.194;6.840;2022-12-22T11:44:22;10.80;99.90
18083;DHT22;9168;51.194;6.840;2022-12-22T11:47:00;11.40;99.90
18083;DHT22;9168;51.194;6.840;2022-12-22T11:49:54;12.40;99.90
18083;DHT22;9168;51.194;6.840;2022-12-22T11:52:36;13.20;99.90
18083;DHT22;9168;51.194;6.840;2022-12-22T11:55:12;13.50;99.90
18083;DHT22;9168;51.194;6.840;2022-12-22T11:57:52;13.50;99.90
18083;DHT22;9168;51.194;6.840;2022-12-22T12:00:21;13.20;99.90
18083;DHT22;9168;51.194;6.840;2022-12-22T12:03:42;13.00;99.90
18083;DHT22;9168;51.194;6.840;2022-12-22T12:06:31;12.70;99.90
18083;DHT22;9168;51.194;6.840;2022-12-22T12:09:18;12.50;99.90
18083;DHT22;9168;51.194;6.840;2022-12-22T12:11:54;12.40;99.90
18083;DHT22;9168;51.194;6.840;2022-12-22T12:14:26;12.20;99.90
18083;DHT22;9168;51.194;6.840;2022-12-22T12:16:58;12.00;99.90
18083;DHT22;9168;51.194;6.840;2022-12-22T12:22:33;11.70;99.90
18083;DHT22;9168;51.194;6.840;2022-12-22T12:25:11;11.60;99.90
18083;DHT22;9168;51.194;6.840;2022-12-22T12:27:52;11.50;99.90
18083;DHT22;9168;51.194;6.840;2022-12-22T12:30:21;11.50;99.90
18083;DHT22;9168;51.194;6.840;2022-12-22T12:32:53;11.50;99.90
18083;DHT22;9168;51.194;6.840;2022-12-22T12:35:41;11.50;99.90
18083;DHT22;9168;51.194;6.840;2022-12-22T12:38:11;11.60;99.90
18083;DHT22;9168;51.194;6.840;2022-12-22T12:40:45;11.70;99.90
18083;DHT22;9168;51.194;6.840;2022-12-22T12:43:15;11.60;99.90
18083;DHT22;9168;51.194;6.840;2022-12-22T12:45:44;11.50;99.90
18083;DHT22;9168;51.194;6.840;2022-12-22T12:48:36;11.40;99.90
18083;DHT22;9168;51.194;6.840;2022-12-22T12:51:44;11.30;99.90
18083;DHT22;9168;51.194;6.840;2022-12-22T12:54:33;11.30;99.90
18083;DHT22;9168;51.194;6.840;2022-12-22T12:57:02;11.30;99.90
18083;DHT22;9168;51.194;6.840;2022-12-22T12:59:45;11.30;99.90
18083;DHT22;9168;51.194;6.840;2022-12-22T13:02:34;11.20;99.90
18083;DHT22;9168;51.194;6.840;2022-12-22T13:08:21;11.30;99.90
18083;DHT22;9168;51.194;6.840;2022-12-22T13:13:52;11.40;99.90
18083;DHT22;9168;51.194;6.840;2022-12-22T13:16:28;11.40;99.90
18083;DHT22;9168;51.194;6.840;2022-12-22T13:18:56;11.50;99.90
18083;DHT22;9168;51.194;6.840;2022-12-22T13:21:28;11.40;99.90
18083;DHT22;9168;51.194;6.840;2022-12-22T13:23:59;11.20;99.90
18083;DHT22;9168;51.194;6.840;2022-12-22T13:26:31;11.10;99.90
18083;DHT22;9168;51.194;6.840;2022-12-22T13:29:06;11.00;99.90
18083;DHT22;9168;51.194;6.840;2022-12-22T13:31:39;10.90;99.90
18083;DHT22;9168;51.194;6.840;2022-12-22T13:34:28;10.80;99.90
18083;DHT22;9168;51.194;6.840;2022-12-22T13:36:57;10.80;99.90
18083;DHT22;9168;51.194;6.840;2022-12-22T13:39:25;10.70;99.90
18083;DHT22;9168;51.194;6.840;2022-12-22T13:41:54;10.70;99.90
18083;DHT22;9168;51.194;6.840;2022-12-22T13:44:28;10.60;99.90
18083;DHT22;9168;51.194;6.840;2022-12-22T13:47:00;10.60;99.90
18083;DHT22;9168;51.194;6.840;2022-12-22T13:49:28;10.50;99.90
18083;DHT22;9168;51.194;6.840;2022-12-22T13:51:56;10.50;99.90
18083;DHT22;9168;51.194;6.840;2022-12-22T13:54:26;10.50;99.90
18083;DHT22;9168;51.194;6.840;2022-12-22T13:56:55;10.50;99.90
18083;DHT22;9168;51.194;6.840;2022-12-22T13:59:29;10.50;99.90
18083;DHT22;9168;51.194;6.840;2022-12-22T14:01:57;10.50;99.90
18083;DHT22;9168;51.194;6.840;2022-12-22T14:04:25;10.50;99.90
18083;DHT22;9168;51.194;6.840;2022-12-22T14:06:53;10.40;99.90
18083;DHT22;9168;51.194;6.840;2022-12-22T14:09:22;10.40;99.90
18083;DHT22;9168;51.194;6.840;2022-12-22T14:11:51;10.40;99.90
18083;DHT22;9168;51.194;6.840;2022-12-22T14:14:24;10.40;99.90
18083;DHT22;9168;51.194;6.840;2022-12-22T14:16:55;10.40;99.90
18083;DHT22;9168;51.194;6.840;2022-12-22T14:19:23;10.40;99.90
18083;DHT22;9168;51.194;6.840;2022-12-22T14:21:59;10.40;99.90
18083;DHT22;9168;51.194;6.840;2022-12-22T14:24:32;10.40;99.90
18083;DHT22;9168;51.194;6.840;2022-12-22T14:27:00;10.30;99.90
18083;DHT22;9168;51.194;6.840;2022-12-22T14:29:27;10.40;99.90
18083;DHT22;9168;51.194;6.840;2022-12-22T14:32:00;10.30;99.90
18083;DHT22;9168;51.194;6.840;2022-12-22T14:34:29;10.30;99.90
18083;DHT22;9168;51.194;6.840;2022-12-22T14:36:57;10.30;99.90
18083;DHT22;9168;51.194;6.840;2022-12-22T14:39:26;10.20;99.90
18083;DHT22;9168;51.194;6.840;2022-12-22T14:41:57;10.10;99.90
18083;DHT22;9168;51.194;6.840;2022-12-22T14:44:27;10.10;99.90
18083;DHT22;9168;51.194;6.840;2022-12-22T14:47:22;10.00;99.90
18083;DHT22;9168;51.194;6.840;2022-12-22T14:49:53;10.00;99.90
18083;DHT22;9168;51.194;6.840;2022-12-22T14:52:25;10.00;99.90
18083;DHT22;9168;51.194;6.840;2022-12-22T14:54:54;9.90;99.90
18083;DHT22;9168;51.194;6.840;2022-12-22T14:57:29;9.90;99.90
18083;DHT22;9168;51.194;6.840;2022-12-22T15:00:00;9.90;99.90
18083;DHT22;9168;51.194;6.840;2022-12-22T15:02:30;9.90;99.90
18083;DHT22;9168;51.194;6.840;2022-12-22T15:05:11;9.90;99.90
18083;DHT22;9168;51.194;6.840;2022-12-22T15:07:46;9.90;99.90
18083;DHT22;9168;51.194;6.840;2022-12-22T15:10:14;9.90;99.90
18083;DHT22;9168;51.194;6.840;2022-12-22T15:12:41;9.90;99.90
18083;DHT22;9168;51.194;6.840;2022-12-22T15:15:17;9.90;99.90
18083;DHT22;9168;51.194;6.840;2022-12-22T15:18:01;9.90;99.90
18083;DHT22;9168;51.194;6.840;2022-12-22T15:20:28;9.90;99.90
18083;DHT22;9168;51.194;6.840;2022-12-22T15:22:56;9.90;99.90
18083;DHT22;9168;51.194;6.840;2022-12-22T15:25:24;9.90;99.90
18083;DHT22;9168;51.194;6.840;2022-12-22T15:27:51;9.90;99.90
18083;DHT22;9168;51.194;6.840;2022-12-22T15:30:19;9.90;99.90
18083;DHT22;9168;51.194;6.840;2022-12-22T15:32:46;9.90;99.90
18083;DHT22;9168;51.194;6.840;2022-12-22T15:35:20;9.90;99.90
18083;DHT22;9168;51.194;6.840;2022-12-22T15:37:48;9.90;99.90
18083;DHT22;9168;51.194;6.840;2022-12-22T15:40:17;9.80;99.90
18083;DHT22;9168;51.194;6.840;2022-12-22T15:42:45;9.80;99.90
18083;DHT22;9168;51.194;6.840;2022-12-22T15:45:13;9.80;99.90
18083;DHT22;9168;51.194;6.840;2022-12-22T15:47:40;9.80;99.90
18083;DHT22;9168;51.194;6.840;2022-12-22T15:50:14;9.80;99.90
18083;DHT22;9168;51.194;6.840;2022-12-22T15:52:44;9.80;99.90
18083;DHT22;9168;51.194;6.840;2022-12-22T15:55:13;9.70;99.90
18083;DHT22;9168;51.194;6.840;2022-12-22T15:57:40;9.70;99.90
18083;DHT22;9168;51.194;6.840;2022-12-22T16:00:10;9.70;99.90
18083;DHT22;9168;51.194;6.840;2022-12-22T16:02:37;9.70;99.90
18083;DHT22;9168;51.194;6.840;2022-12-22T16:05:05;9.70;99.90
18083;DHT22;9168;51.194;6.840;2022-12-22T16:07:32;9.70;99.90
18083;DHT22;9168;51.194;6.840;2022-12-22T16:10:00;9.70;99.90
18083;DHT22;9168;51.194;6.840;2022-12-22T16:12:29;9.70;99.90
18083;DHT22;9168;51.194;6.840;2022-12-22T16:14:57;9.70;99.90
18083;DHT22;9168;51.194;6.840;2022-12-22T16:17:26;9.60;99.90
18083;DHT22;9168;51.194;6.840;2022-12-22T16:19:54;9.60;99.90
18083;DHT22;9168;51.194;6.840;2022-12-22T16:22:28;9.50;99.90
18083;DHT22;9168;51.194;6.840;2022-12-22T16:24:56;9.50;99.90
18083;DHT22;9168;51.194;6.840;2022-12-22T16:27:24;9.50;99.90
18083;DHT22;9168;51.194;6.840;2022-12-22T16:29:52;9.50;99.90
18083;DHT22;9168;51.194;6.840;2022-12-22T16:32:23;9.50;99.90
18083;DHT22;9168;51.194;6.840;2022-12-22T16:34:50;9.50;99.90
18083;DHT22;9168;51.194;6.840;2022-12-22T16:37:17;9.50;99.90
18083;DHT22;9168;51.194;6.840;2022-12-22T16:39:44;9.50;99.90
18083;DHT22;9168;51.194;6.840;2022-12-22T16:42:12;9.50;99.90
18083;DHT22;9168;51.194;6.840;2022-12-22T16:44:41;9.40;99.90
18083;DHT22;9168;51.194;6.840;2022-12-22T16:47:15;9.40;99.90
18083;DHT22;9168;51.194;6.840;2022-12-22T16:49:44;9.40;99.90
18083;DHT22;9168;51.194;6.840;2022-12-22T16:52:16;9.30;99.90
18083;DHT22;9168;51.194;6.840;2022-12-22T16:54:44;9.30;99.90
18083;DHT22;9168;51.194;6.840;2022-12-22T16:57:11;9.30;99.90
18083;DHT22;9168;51.194;6.840;2022-12-22T16:59:40;9.30;99.90
18083;DHT22;9168;51.194;6.840;2022-12-22T17:02:19;9.30;99.90
18083;DHT22;9168;51.194;6.840;2022-12-22T17:04:47;9.40;99.90
18083;DHT22;9168;51.194;6.840;2022-12-22T17:07:18;9.30;99.90
18083;DHT22;9168;51.194;6.840;2022-12-22T17:12:15;9.30;99.90
18083;DHT22;9168;51.194;6.840;2022-12-22T17:14:48;9.30;99.90
18083;DHT22;9168;51.194;6.840;2022-12-22T17:17:16;9.30;99.90
18083;DHT22;9168;51.194;6.840;2022-12-22T17:19:46;9.30;99.90
18083;DHT22;9168;51.194;6.840;2022-12-22T17:22:20;9.30;99.90
18083;DHT22;9168;51.194;6.840;2022-12-22T17:24:49;9.30;99.90
18083;DHT22;9168;51.194;6.840;2022-12-22T17:27:18;9.40;99.90
18083;DHT22;9168;51.194;6.840;2022-12-22T17:29:49;9.40;99.90
18083;DHT22;9168;51.194;6.840;2022-12-22T17:32:18;9.30;99.90
18083;DHT22;9168;51.194;6.840;2022-12-22T17:34:45;9.40;99.90
18083;DHT22;9168;51.194;6.840;2022-12-22T17:37:14;9.30;99.90
18083;DHT22;9168;51.194;6.840;2022-12-22T17:39:42;9.30;99.90
18083;DHT22;9168;51.194;6.840;2022-12-22T17:42:16;9.30;99.90
18083;DHT22;9168;51.194;6.840;2022-12-22T17:44:43;9.30;99.90
18083;DHT22;9168;51.194;6.840;2022-12-22T17:47:14;9.30;99.90
18083;DHT22;9168;51.194;6.840;2022-12-22T17:49:42;9.30;99.90
18083;DHT22;9168;51.194;6.840;2022-12-22T17:52:15;9.30;99.90
18083;DHT22;9168;51.194;6.840;2022-12-22T17:54:45;9.30;99.90
18083;DHT22;9168;51.194;6.840;2022-12-22T17:57:15;9.30;99.90
18083;DHT22;9168;51.194;6.840;2022-12-22T17:59:44;9.30;99.90
18083;DHT22;9168;51.194;6.840;2022-12-22T18:02:16;9.30;99.90
18083;DHT22;9168;51.194;6.840;2022-12-22T18:04:44;9.40;99.90
18083;DHT22;9168;51.194;6.840;2022-12-22T18:07:12;9.40;99.90
18083;DHT22;9168;51.194;6.840;2022-12-22T18:09:40;9.40;99.90
18083;DHT22;9168;51.194;6.840;2022-12-22T18:12:14;9.40;99.90
18083;DHT22;9168;51.194;6.840;2022-12-22T18:14:42;9.40;99.90
18083;DHT22;9168;51.194;6.840;2022-12-22T18:17:20;9.40;99.90
18083;DHT22;9168;51.194;6.840;2022-12-22T18:19:48;9.40;99.90
18083;DHT22;9168;51.194;6.840;2022-12-22T18:22:47;9.30;99.90
18083;DHT22;9168;51.194;6.840;2022-12-22T18:25:17;9.30;99.90
18083;DHT22;9168;51.194;6.840;2022-12-22T18:27:44;9.40;99.90
18083;DHT22;9168;51.194;6.840;2022-12-22T18:30:16;9.30;99.90
18083;DHT22;9168;51.194;6.840;2022-12-22T18:32:45;9.40;99.90
18083;DHT22;9168;51.194;6.840;2022-12-22T18:35:12;9.40;99.90
18083;DHT22;9168;51.194;6.840;2022-12-22T18:37:40;9.40;99.90
18083;DHT22;9168;51.194;6.840;2022-12-22T18:40:23;9.40;99.90
18083;DHT22;9168;51.194;6.840;2022-12-22T18:42:51;9.40;99.90
18083;DHT22;9168;51.194;6.840;2022-12-22T18:45:19;9.40;99.90
18083;DHT22;9168;51.194;6.840;2022-12-22T18:47:48;9.50;99.90
18083;DHT22;9168;51.194;6.840;2022-12-22T18:50:17;9.50;99.90
18083;DHT22;9168;51.194;6.840;2022-12-22T18:52:45;9.50;99.90
18083;DHT22;9168;51.194;6.840;2022-12-22T18:55:22;9.50;99.90
18083;DHT22;9168;51.194;6.840;2022-12-22T18:57:50;9.40;99.90
18083;DHT22;9168;51.194;6.840;2022-12-22T19:00:20;9.40;99.90
18083;DHT22;9168;51.194;6.840;2022-12-22T19:02:51;9.40;99.90
18083;DHT22;9168;51.194;6.840;2022-12-22T19:05:21;9.40;99.90
18083;DHT22;9168;51.194;6.840;2022-12-22T19:07:49;9.50;99.90